createdAt,value
2023-02-14T00:01:14.982Z,353.58
2023-02-14T00:05:28.367Z,210.77
2023-02-14T00:07:38.281Z,205.98
2023-02-14T00:09:44.671Z,229.32
2023-02-14T00:12:05.188Z,281.50
2023-02-14T00:14:25.568Z,388.30
2023-02-14T00:16:30.351Z,267.80
2023-02-14T00:18:53.560Z,202.02
2023-02-14T00:20:59.731Z,234.57
2023-02-14T00:23:01.551Z,223.63
2023-02-14T00:27:07.276Z,277.17
2023-02-14T00:29:28.732Z,200.13
2023-02-14T00:31:30.407Z,253.07
2023-02-14T00:33:31.905Z,309.98
2023-02-14T00:35:39.414Z,203.60
2023-02-14T00:39:45.059Z,199.98
2023-02-14T00:41:46.526Z,165.80
2023-02-14T00:43:48.869Z,274.60
2023-02-14T00:45:53.097Z,151.23
2023-02-14T00:47:54.770Z,197.98
2023-02-14T00:50:03.059Z,145.30
2023-02-14T00:52:07.538Z,153.48
2023-02-14T00:54:09.106Z,144.98
2023-02-14T00:56:13.868Z,132.50
2023-02-14T00:58:15.358Z,205.90
2023-02-14T01:00:20.040Z,164.80
2023-02-14T01:02:39.922Z,141.25
2023-02-14T01:04:41.465Z,170.95
2023-02-14T01:06:42.917Z,334.80
2023-02-14T01:08:44.344Z,205.80
2023-02-14T01:10:45.886Z,225.07
2023-02-14T01:12:53.178Z,165.82
2023-02-14T01:14:57.744Z,181.07
2023-02-14T01:17:17.888Z,192.20
2023-02-14T01:19:19.341Z,239.13
2023-02-14T01:21:23.369Z,155.73
2023-02-14T01:25:29.199Z,151.27
2023-02-14T01:27:30.990Z,310.67
2023-02-14T01:29:35.409Z,201.43
2023-02-14T01:31:39.875Z,173.73
2023-02-14T01:33:42.743Z,309.00
2023-02-14T01:35:44.251Z,161.18
2023-02-14T01:37:45.742Z,163.63
2023-02-14T01:39:50.053Z,271.75
2023-02-14T01:41:56.058Z,152.05
2023-02-14T01:44:15.557Z,303.73
2023-02-14T01:46:17.139Z,129.15
2023-02-14T01:48:20.901Z,307.92
2023-02-14T01:50:25.047Z,192.07
2023-02-14T01:52:32.628Z,250.07
2023-02-14T01:54:35.978Z,158.85
2023-02-14T01:56:45.590Z,159.32
2023-02-14T01:58:51.132Z,235.68
2023-02-14T02:00:58.367Z,219.32
2023-02-14T02:03:00.612Z,206.27
2023-02-14T02:05:23.802Z,156.68
2023-02-14T02:07:29.490Z,135.57
2023-02-14T02:09:35.632Z,207.38
2023-02-14T02:11:40.453Z,183.65
2023-02-14T02:13:44.470Z,180.07
2023-02-14T02:16:10.376Z,164.93
2023-02-14T02:18:19.495Z,147.00
2023-02-14T02:20:28.926Z,187.68
2023-02-14T02:22:33.107Z,203.20
2023-02-14T02:24:49.449Z,139.50
2023-02-14T02:27:20.503Z,148.40
2023-02-14T02:29:33.826Z,135.25
2023-02-14T02:32:01.793Z,143.93
2023-02-14T02:34:21.993Z,149.15
2023-02-14T02:36:46.606Z,272.40
2023-02-14T02:38:56.833Z,283.85
2023-02-14T02:41:17.622Z,227.50
2023-02-14T02:43:47.489Z,259.05
2023-02-14T02:46:16.377Z,227.00
2023-02-14T02:48:30.280Z,358.45
2023-02-14T02:51:21.177Z,303.45
2023-02-14T02:53:32.820Z,196.00
2023-02-14T02:56:20.229Z,240.82
2023-02-14T02:58:34.504Z,215.80
2023-02-14T03:01:07.068Z,196.90
2023-02-14T03:03:37.825Z,201.70
2023-02-14T03:06:03.535Z,313.73
2023-02-14T03:08:18.209Z,247.88
2023-02-14T03:10:33.135Z,260.33
2023-02-14T03:13:04.803Z,346.35
2023-02-14T03:15:25.313Z,194.23
2023-02-14T03:17:32.445Z,285.33
2023-02-14T03:19:52.625Z,286.10
2023-02-14T03:22:05.273Z,202.15
2023-02-14T03:24:09.443Z,284.00
2023-02-14T03:26:28.323Z,163.82
2023-02-14T03:28:43.542Z,176.25
2023-02-14T03:31:07.879Z,178.18
2023-02-14T03:33:29.643Z,223.95
2023-02-14T03:35:56.310Z,142.73
2023-02-14T03:38:04.250Z,185.15
2023-02-14T03:40:23.416Z,150.75
2023-02-14T03:42:30.651Z,130.07
2023-02-14T03:44:34.330Z,133.18
2023-02-14T03:46:54.658Z,124.10
2023-02-14T03:48:57.782Z,127.93
2023-02-14T03:50:59.945Z,151.15
2023-02-14T03:53:02.600Z,125.65
2023-02-14T03:55:06.008Z,131.38
2023-02-14T03:57:12.005Z,117.35
2023-02-14T03:59:18.013Z,131.23
2023-02-14T04:01:30.207Z,109.10
2023-02-14T04:03:32.325Z,182.70
2023-02-14T04:05:33.839Z,127.18
2023-02-14T04:07:43.801Z,133.00
2023-02-14T04:09:50.984Z,115.88
2023-02-14T04:12:01.175Z,127.35
2023-02-14T04:14:05.755Z,126.80
2023-02-14T04:16:07.474Z,105.93
2023-02-14T04:18:46.564Z,111.90
2023-02-14T04:20:48.004Z,125.07
2023-02-14T04:22:52.280Z,128.80
2023-02-14T04:24:53.745Z,102.10
2023-02-14T04:27:12.777Z,126.47
2023-02-14T04:29:14.202Z,87.53
2023-02-14T04:31:18.412Z,107.63
2023-02-14T04:33:22.821Z,91.50
2023-02-14T04:35:27.209Z,115.18
2023-02-14T04:37:31.983Z,90.70
2023-02-14T04:39:36.405Z,98.97
2023-02-14T04:41:40.670Z,129.30
2023-02-14T04:43:45.099Z,96.85
2023-02-14T04:45:49.346Z,103.63
2023-02-14T04:47:50.829Z,125.63
2023-02-14T04:51:56.791Z,94.90
2023-02-14T04:54:01.366Z,108.88
2023-02-14T04:56:13.936Z,134.88
2023-02-14T04:58:21.043Z,106.45
2023-02-14T05:00:25.462Z,158.48
2023-02-14T05:02:29.544Z,94.97
2023-02-14T05:04:31.004Z,107.68
2023-02-14T05:06:51.165Z,136.38
2023-02-14T05:08:56.383Z,97.25
2023-02-14T05:10:58.106Z,102.65
2023-02-14T05:13:05.690Z,85.53
2023-02-14T05:15:10.075Z,105.20
2023-02-14T05:17:14.573Z,103.00
2023-02-14T05:19:19.040Z,109.63
2023-02-14T05:21:20.519Z,103.47
2023-02-14T05:23:22.033Z,97.55
2023-02-14T05:25:42.333Z,98.45
2023-02-14T05:28:02.352Z,104.80
2023-02-14T05:30:04.129Z,106.68
2023-02-14T05:32:05.631Z,97.45
2023-02-14T05:34:07.280Z,103.57
2023-02-14T05:36:08.835Z,82.50
2023-02-14T05:38:10.522Z,100.70
2023-02-14T05:40:13.855Z,90.72
2023-02-14T05:42:18.109Z,87.57
2023-02-14T05:44:24.918Z,77.32
2023-02-14T05:46:47.495Z,104.78
2023-02-14T05:49:22.305Z,93.10
2023-02-14T05:51:59.847Z,112.32
2023-02-14T05:54:27.571Z,96.95
2023-02-14T05:56:48.375Z,85.38
2023-02-14T05:59:17.859Z,99.90
2023-02-14T06:01:35.345Z,104.15
2023-02-14T06:04:05.068Z,93.25
2023-02-14T06:06:33.104Z,86.35
2023-02-14T06:09:06.238Z,115.53
2023-02-14T06:11:29.211Z,90.53
2023-02-14T06:13:46.994Z,86.65
2023-02-14T06:16:06.150Z,95.82
2023-02-14T06:18:13.524Z,95.93
2023-02-14T06:20:15.114Z,94.00
2023-02-14T06:22:19.404Z,91.38
2023-02-14T06:24:23.927Z,107.72
2023-02-14T06:28:32.448Z,85.60
2023-02-14T06:30:33.914Z,107.53
2023-02-14T06:32:35.471Z,84.97
2023-02-14T06:34:36.993Z,84.25
2023-02-14T06:36:41.040Z,80.47
2023-02-14T06:38:45.189Z,93.72
2023-02-14T06:40:49.225Z,87.03
2023-02-14T06:43:09.440Z,113.25
2023-02-14T06:45:11.289Z,86.47
2023-02-14T06:47:32.373Z,90.63
2023-02-14T06:49:35.443Z,85.45
2023-02-14T06:51:37.005Z,107.57
2023-02-14T06:53:38.586Z,94.22
2023-02-14T06:55:43.890Z,83.50
2023-02-14T06:57:45.760Z,89.80
2023-02-14T06:59:49.773Z,98.03
2023-02-14T07:03:58.411Z,104.78
2023-02-14T07:06:00.015Z,182.00
2023-02-14T07:08:04.468Z,193.98
2023-02-14T07:10:11.961Z,135.23
2023-02-14T07:12:13.700Z,129.95
2023-02-14T07:14:17.886Z,165.13
2023-02-14T07:16:19.393Z,132.80
2023-02-14T07:18:20.944Z,131.18
2023-02-14T07:20:22.472Z,129.77
2023-02-14T07:22:27.443Z,125.28
2023-02-14T07:24:30.407Z,112.95
2023-02-14T07:26:34.897Z,124.65
2023-02-14T07:28:36.334Z,120.63
2023-02-14T07:30:40.580Z,123.20
2023-02-14T07:32:44.765Z,112.65
2023-02-14T07:36:50.573Z,108.93
2023-02-14T07:38:52.038Z,116.05
2023-02-14T07:40:56.584Z,154.32
2023-02-14T07:42:58.590Z,137.13
2023-02-14T07:45:22.030Z,103.35
2023-02-14T07:47:25.084Z,110.32
2023-02-14T07:49:26.555Z,114.28
2023-02-14T07:51:28.129Z,127.53
2023-02-14T07:53:29.605Z,130.82
2023-02-14T07:55:31.098Z,117.65
2023-02-14T07:57:35.446Z,129.60
2023-02-14T07:59:36.936Z,155.55
2023-02-14T08:01:41.681Z,161.15
2023-02-14T08:04:02.046Z,128.18
2023-02-14T08:06:04.509Z,121.28
2023-02-14T08:08:05.997Z,133.02
2023-02-14T08:10:12.847Z,145.55
2023-02-14T08:12:33.271Z,159.90
2023-02-14T08:14:34.900Z,189.38
2023-02-14T08:16:38.157Z,152.32
2023-02-14T08:18:58.249Z,169.00
2023-02-14T08:21:02.806Z,132.90
2023-02-14T08:23:07.482Z,132.40
2023-02-14T08:25:09.077Z,139.80
2023-02-14T08:27:13.213Z,133.18
2023-02-14T08:29:16.824Z,142.35
2023-02-14T08:31:37.551Z,149.98
2023-02-14T08:33:44.265Z,158.50
2023-02-14T08:36:04.568Z,171.35
2023-02-14T08:38:06.167Z,143.90
2023-02-14T08:42:14.514Z,155.57
2023-02-14T08:44:16.505Z,149.70
2023-02-14T08:46:22.824Z,148.50
2023-02-14T08:48:28.178Z,154.85
2023-02-14T08:50:34.637Z,154.70
2023-02-14T08:52:41.757Z,135.10
2023-02-14T08:54:47.625Z,153.85
2023-02-14T08:56:53.423Z,137.45
2023-02-14T08:58:58.891Z,126.90
2023-02-14T09:01:17.929Z,118.00
2023-02-14T09:03:26.645Z,111.60
2023-02-14T09:05:30.310Z,111.88
2023-02-14T09:07:36.758Z,109.85
2023-02-14T09:09:40.713Z,106.32
2023-02-14T09:11:44.937Z,103.93
2023-02-14T09:14:06.870Z,99.43
2023-02-14T09:16:14.202Z,91.53
2023-02-14T09:18:23.445Z,103.78
2023-02-14T09:20:29.751Z,98.78
2023-02-14T09:22:33.530Z,91.63
2023-02-14T09:24:41.823Z,90.55
2023-02-14T09:26:43.317Z,97.78
2023-02-14T09:28:47.826Z,98.50
2023-02-14T09:30:49.577Z,86.90
2023-02-14T09:32:54.325Z,95.28
2023-02-14T09:35:14.726Z,91.47
2023-02-14T09:37:16.269Z,95.82
2023-02-14T09:39:17.949Z,107.70
2023-02-14T09:43:30.386Z,98.57
2023-02-14T09:45:33.151Z,94.65
2023-02-14T09:47:54.084Z,95.38
2023-02-14T09:50:03.503Z,101.75
2023-02-14T09:52:12.599Z,96.47
2023-02-14T09:54:22.050Z,99.40
2023-02-14T09:56:51.279Z,110.40
2023-02-14T09:58:53.429Z,107.43
2023-02-14T10:01:00.362Z,104.47
2023-02-14T10:03:07.987Z,120.22
2023-02-14T10:05:15.653Z,150.45
2023-02-14T10:07:21.293Z,125.55
2023-02-14T10:09:22.797Z,157.82
2023-02-14T10:11:27.908Z,135.63
2023-02-14T10:13:35.093Z,159.75
2023-02-14T10:15:41.446Z,169.65
2023-02-14T10:18:09.290Z,144.98
2023-02-14T10:22:14.561Z,98.45
2023-02-14T10:24:22.689Z,133.93
2023-02-14T10:26:30.566Z,125.50
2023-02-14T10:28:37.439Z,96.32
2023-02-14T10:32:46.660Z,187.38
2023-02-14T10:34:51.693Z,102.97
2023-02-14T10:37:16.083Z,149.52
2023-02-14T10:39:23.666Z,123.20
2023-02-14T10:41:50.761Z,151.30
2023-02-14T10:44:03.428Z,127.82
2023-02-14T10:46:18.182Z,100.72
2023-02-14T10:48:28.522Z,87.38
2023-02-14T10:50:43.909Z,110.50
2023-02-14T10:53:07.099Z,101.95
2023-02-14T10:55:32.025Z,91.80
2023-02-14T10:57:35.798Z,101.07
2023-02-14T11:00:03.236Z,76.25
2023-02-14T11:02:05.323Z,70.60
2023-02-14T11:04:08.717Z,67.38
2023-02-14T11:06:29.496Z,93.57
2023-02-14T11:08:34.413Z,88.75
2023-02-14T11:10:38.773Z,88.85
2023-02-14T11:12:43.359Z,85.22
2023-02-14T11:14:45.084Z,69.03
2023-02-14T11:16:51.907Z,66.40
2023-02-14T11:21:14.375Z,65.93
2023-02-14T11:23:36.770Z,67.32
2023-02-14T11:25:41.623Z,64.32
2023-02-14T11:27:49.795Z,68.43
2023-02-14T11:29:54.145Z,65.95
2023-02-14T11:32:15.298Z,58.95
2023-02-14T11:34:24.944Z,67.28
2023-02-14T11:36:26.960Z,70.22
2023-02-14T11:38:35.798Z,77.60
2023-02-14T11:40:40.471Z,72.45
2023-02-14T11:42:47.751Z,68.65
2023-02-14T11:44:56.094Z,68.90
2023-02-14T11:47:41.322Z,67.85
2023-02-14T11:50:02.745Z,65.40
2023-02-14T11:52:15.864Z,67.53
2023-02-14T11:54:38.718Z,68.50
2023-02-14T11:56:56.118Z,67.60
2023-02-14T11:59:08.458Z,63.28
2023-02-14T12:01:30.372Z,65.35
2023-02-14T12:03:45.594Z,57.88
2023-02-14T12:05:51.162Z,54.55
2023-02-14T12:08:04.649Z,62.13
2023-02-14T12:10:19.747Z,57.70
2023-02-14T12:12:32.599Z,59.40
2023-02-14T12:14:40.038Z,58.75
2023-02-14T12:16:51.069Z,61.13
2023-02-14T12:19:12.624Z,52.95
2023-02-14T12:21:24.275Z,55.65
2023-02-14T12:23:45.354Z,61.80
2023-02-14T12:26:06.004Z,55.70
2023-02-14T12:28:14.168Z,53.90
2023-02-14T12:30:18.210Z,54.28
2023-02-14T12:32:24.868Z,58.53
2023-02-14T12:34:26.476Z,59.72
2023-02-14T12:36:40.230Z,52.03
2023-02-14T12:39:10.153Z,42.40
2023-02-14T12:41:14.529Z,51.45
2023-02-14T12:43:18.862Z,41.05
2023-02-14T12:45:32.326Z,36.38
2023-02-14T12:47:45.295Z,35.88
2023-02-14T12:50:25.493Z,45.22
2023-02-14T12:52:32.685Z,42.17
2023-02-14T12:54:56.490Z,42.80
2023-02-14T12:57:03.961Z,36.00
2023-02-14T12:59:34.720Z,40.22
2023-02-14T13:01:42.915Z,39.65
2023-02-14T13:03:55.837Z,34.53
2023-02-14T13:06:25.051Z,28.88
2023-02-14T13:08:36.486Z,26.90
2023-02-14T13:11:02.069Z,28.45
2023-02-14T13:13:12.835Z,27.67
2023-02-14T13:15:32.226Z,21.30
2023-02-14T13:17:47.629Z,14.52
2023-02-14T13:20:12.927Z,23.15
2023-02-14T13:22:17.485Z,27.33
2023-02-14T13:24:21.928Z,24.80
2023-02-14T13:26:30.029Z,30.10
2023-02-14T13:28:32.710Z,30.73
2023-02-14T13:30:35.797Z,31.20
2023-02-14T13:32:41.242Z,25.83
2023-02-14T13:34:47.168Z,37.00
2023-02-14T13:36:49.285Z,26.15
2023-02-14T13:41:05.553Z,28.23
2023-02-14T13:43:09.649Z,28.88
2023-02-14T13:45:39.283Z,24.90
2023-02-14T13:47:43.329Z,34.97
2023-02-14T13:49:49.741Z,30.45
2023-02-14T13:51:55.583Z,24.35
2023-02-14T13:53:59.696Z,20.50
2023-02-14T13:56:13.420Z,27.88
2023-02-14T13:58:17.238Z,25.70
2023-02-14T14:00:22.269Z,31.45
2023-02-14T14:02:29.161Z,25.73
2023-02-14T14:04:32.051Z,26.33
2023-02-14T14:06:52.582Z,23.17
2023-02-14T14:08:56.184Z,24.33
2023-02-14T14:11:01.996Z,29.48
2023-02-14T14:13:07.280Z,22.27
2023-02-14T14:15:13.290Z,23.70
2023-02-14T14:17:19.763Z,26.50
2023-02-14T14:19:40.514Z,22.08
2023-02-14T14:21:59.141Z,21.85
2023-02-14T14:24:23.021Z,25.88
2023-02-14T14:26:45.592Z,25.65
2023-02-14T14:28:49.771Z,23.88
2023-02-14T14:30:54.257Z,22.67
2023-02-14T14:33:15.417Z,24.58
2023-02-14T14:35:19.897Z,23.67
2023-02-14T14:37:28.500Z,22.95
2023-02-14T14:39:31.915Z,22.55
2023-02-14T14:41:33.344Z,26.90
2023-02-14T14:45:45.631Z,23.83
2023-02-14T14:47:47.998Z,27.58
2023-02-14T14:49:50.308Z,21.75
2023-02-14T14:51:55.369Z,21.65
2023-02-14T14:54:04.761Z,21.40
2023-02-14T14:56:06.285Z,24.58
2023-02-14T14:58:31.454Z,25.65
2023-02-14T15:00:40.500Z,25.83
2023-02-14T15:03:21.686Z,28.50
2023-02-14T15:05:37.789Z,31.08
2023-02-14T15:07:48.824Z,27.17
2023-02-14T15:09:58.853Z,29.27
2023-02-14T15:12:25.294Z,26.08
2023-02-14T15:14:33.757Z,30.63
2023-02-14T15:16:55.060Z,29.00
2023-02-14T15:19:13.513Z,23.30
2023-02-14T15:21:21.586Z,24.55
2023-02-14T15:23:25.925Z,28.98
2023-02-14T15:25:49.704Z,27.52
2023-02-14T15:27:58.440Z,28.70
2023-02-14T15:30:05.256Z,28.75
2023-02-14T15:32:20.923Z,28.38
2023-02-14T15:34:35.169Z,33.83
2023-02-14T15:36:37.496Z,24.15
2023-02-14T15:38:41.129Z,31.25
2023-02-14T15:40:43.026Z,23.20
2023-02-14T15:42:45.183Z,32.42
2023-02-14T15:45:10.804Z,31.88
2023-02-14T15:47:15.280Z,26.95
2023-02-14T15:49:19.948Z,35.83
2023-02-14T15:51:22.917Z,29.77
2023-02-14T15:53:42.064Z,29.65
2023-02-14T15:55:52.393Z,28.40
2023-02-14T15:57:59.026Z,35.95
2023-02-14T16:00:00.924Z,28.90
2023-02-14T16:02:18.689Z,26.88
2023-02-14T16:04:27.174Z,28.02
2023-02-14T16:06:37.490Z,27.02
2023-02-14T16:08:41.815Z,26.35
2023-02-14T16:10:58.241Z,21.17
2023-02-14T16:13:04.290Z,23.70
2023-02-14T16:15:22.340Z,29.70
2023-02-14T16:17:34.059Z,31.25
2023-02-14T16:19:38.585Z,28.02
2023-02-14T16:21:40.146Z,23.45
2023-02-14T16:23:48.246Z,26.75
2023-02-14T16:25:53.038Z,27.60
2023-02-14T16:27:57.498Z,25.95
2023-02-14T16:29:59.217Z,27.17
2023-02-14T16:32:23.629Z,32.42
2023-02-14T16:34:26.271Z,26.50
2023-02-14T16:36:31.726Z,24.20
2023-02-14T16:38:41.515Z,26.23
2023-02-14T16:40:50.704Z,21.15
2023-02-14T16:42:55.107Z,28.42
2023-02-14T16:44:59.176Z,27.23
2023-02-14T16:47:01.904Z,23.75
2023-02-14T16:49:06.568Z,17.42
2023-02-14T16:51:10.315Z,26.92
2023-02-14T16:53:24.253Z,20.38
2023-02-14T16:55:29.905Z,27.75
2023-02-14T16:57:37.255Z,20.23
2023-02-14T16:59:41.750Z,21.10
2023-02-14T17:01:43.751Z,20.67
2023-02-14T17:03:45.309Z,24.17
2023-02-14T17:06:06.246Z,27.05
2023-02-14T17:08:09.916Z,20.05
2023-02-14T17:10:18.491Z,22.83
2023-02-14T17:12:29.679Z,30.90
2023-02-14T17:14:33.173Z,23.58
2023-02-14T17:16:37.749Z,24.65
2023-02-14T17:18:58.098Z,35.55
2023-02-14T17:21:00.322Z,24.92
2023-02-14T17:23:02.011Z,26.55
2023-02-14T17:25:05.447Z,30.35
2023-02-14T17:27:09.922Z,26.90
2023-02-14T17:29:17.224Z,31.80
2023-02-14T17:31:18.850Z,30.42
2023-02-14T17:33:24.019Z,24.52
2023-02-14T17:35:28.268Z,24.80
2023-02-14T17:37:30.685Z,32.42
2023-02-14T17:39:32.297Z,27.35
2023-02-14T17:41:33.871Z,38.65
2023-02-14T17:43:35.771Z,30.15
2023-02-14T17:45:40.222Z,26.20
2023-02-14T17:47:43.272Z,26.88
2023-02-14T17:49:47.419Z,35.42
2023-02-14T17:51:56.379Z,32.22
2023-02-14T17:53:58.984Z,32.40
2023-02-14T17:56:08.655Z,30.27
2023-02-14T17:58:12.745Z,29.20
2023-02-14T18:00:17.348Z,22.90
2023-02-14T18:02:24.454Z,27.10
2023-02-14T18:04:30.376Z,33.72
2023-02-14T18:06:44.419Z,29.83
2023-02-14T18:09:03.515Z,25.38
2023-02-14T18:11:13.245Z,32.10
2023-02-14T18:13:17.401Z,28.48
2023-02-14T18:15:31.896Z,25.05
2023-02-14T18:17:44.788Z,25.83
2023-02-14T18:19:52.309Z,30.85
2023-02-14T18:21:55.478Z,27.02
2023-02-14T18:24:09.970Z,33.85
2023-02-14T18:26:16.591Z,26.60
2023-02-14T18:28:27.168Z,27.08
2023-02-14T18:30:31.559Z,31.85
2023-02-14T18:32:39.060Z,28.13
2023-02-14T18:34:46.415Z,33.25
2023-02-14T18:36:51.502Z,28.55
2023-02-14T18:39:03.736Z,30.63
2023-02-14T18:41:09.732Z,36.08
2023-02-14T18:43:29.568Z,27.35
2023-02-14T18:45:37.496Z,23.30
2023-02-14T18:47:39.042Z,24.20
2023-02-14T18:49:40.497Z,23.98
2023-02-14T18:51:44.938Z,25.00
2023-02-14T18:53:46.838Z,31.70
2023-02-14T18:55:51.029Z,31.77
2023-02-14T18:57:52.445Z,30.08
2023-02-14T18:59:56.484Z,26.77
2023-02-14T19:02:03.909Z,28.27
2023-02-14T19:04:08.925Z,30.38
2023-02-14T19:06:13.133Z,28.15
2023-02-14T19:08:17.534Z,23.00
2023-02-14T19:10:21.991Z,28.08
2023-02-14T19:12:24.379Z,38.88
2023-02-14T19:14:25.833Z,29.88
2023-02-14T19:16:31.486Z,31.20
2023-02-14T19:18:35.828Z,34.45
2023-02-14T19:22:41.638Z,29.80
2023-02-14T19:24:43.116Z,22.17
2023-02-14T19:26:47.418Z,24.67
2023-02-14T19:28:55.087Z,25.45
2023-02-14T19:30:59.723Z,23.15
2023-02-14T19:33:01.524Z,21.77
2023-02-14T19:35:03.044Z,23.10
2023-02-14T19:37:10.362Z,26.92
2023-02-14T19:41:17.709Z,18.83
2023-02-14T19:43:19.145Z,22.90
2023-02-14T19:47:45.665Z,23.20
2023-02-14T19:49:47.600Z,19.10
2023-02-14T19:51:55.186Z,25.48
2023-02-14T19:56:03.547Z,27.13
2023-02-14T19:58:07.741Z,20.65
2023-02-14T20:00:12.685Z,24.65
2023-02-14T20:02:17.954Z,22.00
2023-02-14T20:04:23.369Z,17.33
2023-02-14T20:06:30.986Z,23.60
2023-02-14T20:08:51.294Z,21.42
2023-02-14T20:10:52.745Z,21.75
2023-02-14T20:12:54.268Z,20.60
2023-02-14T20:15:02.015Z,21.85
2023-02-14T20:17:07.689Z,22.23
2023-02-14T20:19:12.144Z,31.23
2023-02-14T20:21:17.921Z,24.77
2023-02-14T20:23:19.738Z,27.52
2023-02-14T20:25:23.853Z,36.70
2023-02-14T20:27:28.280Z,25.88
2023-02-14T20:29:29.925Z,43.70
2023-02-14T20:31:34.657Z,25.90
2023-02-14T20:33:36.368Z,27.85
2023-02-14T20:35:40.955Z,32.65
2023-02-14T20:37:42.431Z,23.92
2023-02-14T20:39:46.788Z,25.50
2023-02-14T20:42:08.564Z,25.30
2023-02-14T20:44:15.547Z,22.75
2023-02-14T20:46:17.055Z,31.92
2023-02-14T20:48:21.338Z,22.73
2023-02-14T20:50:25.809Z,25.15
2023-02-14T20:52:30.172Z,23.58
2023-02-14T20:54:34.560Z,32.35
2023-02-14T20:56:36.124Z,27.25
2023-02-14T20:58:38.338Z,28.63
2023-02-14T21:00:42.451Z,28.60
2023-02-14T21:02:49.637Z,25.75
2023-02-14T21:04:51.186Z,28.65
2023-02-14T21:06:52.682Z,29.35
2023-02-14T21:11:06.700Z,31.60
2023-02-14T21:13:13.509Z,25.60
2023-02-14T21:15:15.753Z,23.13
2023-02-14T21:17:17.324Z,28.50
2023-02-14T21:19:37.659Z,27.10
2023-02-14T21:21:41.957Z,29.15
2023-02-14T21:23:43.570Z,24.83
2023-02-14T21:25:45.198Z,24.58
2023-02-14T21:27:46.843Z,28.70
2023-02-14T21:29:48.405Z,25.55
2023-02-14T21:31:52.672Z,26.58
2023-02-14T21:33:58.208Z,30.42
2023-02-14T21:36:12.941Z,23.88
2023-02-14T21:38:17.361Z,24.17
2023-02-14T21:42:26.130Z,28.85
2023-02-14T21:45:04.694Z,26.55
2023-02-14T21:47:09.143Z,31.45
2023-02-14T21:49:30.523Z,28.42
2023-02-14T21:51:35.010Z,27.02
2023-02-14T21:53:39.389Z,33.58
2023-02-14T21:56:10.520Z,28.02
2023-02-14T21:58:14.757Z,35.63
2023-02-14T22:00:22.708Z,28.83
2023-02-14T22:02:26.983Z,27.48
2023-02-14T22:04:28.452Z,27.98
2023-02-14T22:06:48.616Z,29.35
2023-02-14T22:08:52.028Z,31.00
2023-02-14T22:10:53.633Z,32.95
2023-02-14T22:12:55.459Z,33.00
2023-02-14T22:15:15.424Z,27.83
2023-02-14T22:17:16.989Z,31.60
2023-02-14T22:19:24.386Z,37.55
2023-02-14T22:21:31.066Z,33.58
2023-02-14T22:23:33.453Z,29.60
2023-02-14T22:25:53.820Z,34.92
2023-02-14T22:27:57.777Z,30.92
2023-02-14T22:29:59.222Z,26.70
2023-02-14T22:32:19.414Z,28.02
2023-02-14T22:34:23.913Z,26.70
2023-02-14T22:36:28.421Z,33.03
2023-02-14T22:38:36.081Z,35.92
2023-02-14T22:40:39.098Z,31.20
2023-02-14T22:42:40.570Z,35.30
2023-02-14T22:44:44.733Z,30.25
2023-02-14T22:46:51.982Z,28.95
2023-02-14T22:50:57.512Z,29.50
2023-02-14T22:53:05.124Z,34.95
2023-02-14T22:55:06.696Z,39.85
2023-02-14T22:59:18.352Z,29.75
2023-02-14T23:01:38.609Z,29.02
2023-02-14T23:03:40.270Z,30.02
2023-02-14T23:05:41.803Z,33.55
2023-02-14T23:07:46.009Z,34.97
2023-02-14T23:09:53.316Z,36.75
2023-02-14T23:11:55.166Z,34.97
2023-02-14T23:14:18.259Z,34.45
2023-02-14T23:16:38.137Z,32.53
2023-02-14T23:19:17.221Z,37.50
2023-02-14T23:21:37.199Z,42.47
2023-02-14T23:23:38.834Z,39.25
2023-02-14T23:25:44.355Z,41.00
2023-02-14T23:28:04.201Z,35.00
2023-02-14T23:30:06.696Z,42.65
2023-02-14T23:32:11.160Z,38.08
2023-02-14T23:34:15.782Z,43.50
2023-02-14T23:36:20.192Z,39.65
2023-02-14T23:38:40.453Z,44.25
2023-02-14T23:41:00.811Z,39.75
2023-02-14T23:43:21.840Z,40.17
2023-02-14T23:45:35.373Z,44.17
2023-02-14T23:47:36.838Z,42.45
2023-02-14T23:49:41.639Z,42.83
2023-02-14T23:51:43.795Z,44.65
2023-02-14T23:53:45.351Z,46.35
2023-02-14T23:56:05.380Z,43.85
2023-02-14T23:58:07.037Z,41.55
